Archival Weather

Granbury Rgnl

Granbury, Texas (KGDJ)

Report from: Monday, January 29, 2024 6:55 AM UTC
Current time: Tuesday, June 18, 2024 10:58 AM UTC

Current weather – Weather history – Daily summaries
Weather forecast

Temperature4.0°C (39.2°F)
Dew point1.7°C (35.1°F)
Winds Calm
Visibility10 mi. (16.1 km)
Clouds Sky clear
Altimeter30.34 in.Hg (1027 mB)
Relative humidity85 %
Density altitude-1,710 ft. (-521 m)
Remarks Fully automated report
Automated weather observing station with precipitation discriminator
Flight conditions Visual Meteorological Conditions
Raw dataKGDJ 290655Z AUTO 00000KT 10SM CLR 04/02 A3034 RMK AO2 T00400017
An error has occurred. This application may no longer respond until reloaded. Reload 🗙